createdAt,value
2019-02-14T00:02:25.231Z,2.52
2019-02-14T00:04:58.043Z,2.52
2019-02-14T00:07:28.374Z,2.53
2019-02-14T00:09:58.705Z,2.48
2019-02-14T00:12:29.023Z,2.40
2019-02-14T00:14:59.685Z,2.34
2019-02-14T00:17:30.316Z,2.27
2019-02-14T00:20:01.004Z,2.25
2019-02-14T00:22:33.561Z,2.29
2019-02-14T00:25:06.299Z,2.33
2019-02-14T00:27:36.926Z,2.32
2019-02-14T00:30:07.664Z,2.33
2019-02-14T00:32:38.296Z,2.34
2019-02-14T00:35:10.452Z,2.36
2019-02-14T00:37:41.132Z,2.34
2019-02-14T00:40:11.713Z,2.31
2019-02-14T00:42:42.066Z,2.28
2019-02-14T00:45:14.009Z,2.24
2019-02-14T00:47:44.334Z,2.15
2019-02-14T00:50:16.960Z,2.04
2019-02-14T00:52:47.478Z,1.96
2019-02-14T00:55:18.055Z,1.88
2019-02-14T00:57:50.241Z,1.86
2019-02-14T01:00:20.671Z,1.84
2019-02-14T01:02:51.249Z,1.87
2019-02-14T01:05:21.831Z,1.87
2019-02-14T01:07:52.436Z,1.84
2019-02-14T01:10:23.026Z,1.82
2019-02-14T01:12:53.645Z,1.85
2019-02-14T01:15:27.245Z,1.87
2019-02-14T01:17:57.724Z,1.88
2019-02-14T01:20:28.335Z,1.87
2019-02-14T01:22:59.197Z,1.87
2019-02-14T01:25:29.566Z,1.86
2019-02-14T01:27:59.982Z,1.89
2019-02-14T01:30:32.220Z,1.89
2019-02-14T01:33:02.655Z,1.93
2019-02-14T01:35:33.036Z,1.95
2019-02-14T01:38:03.805Z,1.90
2019-02-14T01:40:34.369Z,1.88
2019-02-14T01:43:07.304Z,1.88
2019-02-14T01:45:37.638Z,1.85
2019-02-14T01:48:08.058Z,1.87
2019-02-14T01:50:38.409Z,1.81
2019-02-14T01:53:08.814Z,1.80
2019-02-14T01:55:39.259Z,1.78
2019-02-14T01:58:09.947Z,1.71
2019-02-14T02:00:40.330Z,1.70
2019-02-14T02:03:11.766Z,1.69
2019-02-14T02:05:50.422Z,1.68
2019-02-14T02:08:14.398Z,1.64
2019-02-14T02:10:45.002Z,1.59
2019-02-14T02:13:15.306Z,1.56
2019-02-14T02:15:45.694Z,1.53
2019-02-14T02:18:17.562Z,1.50
2019-02-14T02:20:48.903Z,1.49
2019-02-14T02:23:19.242Z,1.51
2019-02-14T02:25:49.660Z,1.61
2019-02-14T02:28:20.974Z,1.62
2019-02-14T02:30:51.330Z,1.59
2019-02-14T02:33:23.419Z,1.54
2019-02-14T02:36:00.151Z,1.48
2019-02-14T02:38:26.948Z,1.49
2019-02-14T02:40:57.426Z,1.50
2019-02-14T02:43:27.763Z,1.55
2019-02-14T02:45:58.092Z,1.56
2019-02-14T02:48:28.398Z,1.45
2019-02-14T02:50:58.663Z,1.40
2019-02-14T02:53:28.945Z,1.38
2019-02-14T02:55:59.814Z,1.41
2019-02-14T02:58:30.069Z,1.38
2019-02-14T03:01:00.344Z,1.45
2019-02-14T03:03:30.853Z,1.38
2019-02-14T03:06:08.635Z,1.27
2019-02-14T03:08:33.231Z,1.20
2019-02-14T03:11:04.770Z,1.15
2019-02-14T03:13:36.062Z,1.08
2019-02-14T03:16:06.381Z,1.11
2019-02-14T03:18:36.938Z,1.15
2019-02-14T03:21:07.298Z,1.25
2019-02-14T03:23:37.605Z,1.24
2019-02-14T03:26:08.231Z,1.25
2019-02-14T03:28:38.528Z,1.22
2019-02-14T03:31:08.949Z,1.21
2019-02-14T03:33:40.520Z,1.21
2019-02-14T03:36:18.612Z,1.16
2019-02-14T03:38:43.293Z,1.10
2019-02-14T03:41:13.593Z,1.12
2019-02-14T03:43:45.603Z,1.04
2019-02-14T03:46:15.879Z,1.02
2019-02-14T03:48:46.188Z,0.98
2019-02-14T03:51:16.748Z,1.02
2019-02-14T03:53:47.293Z,1.03
2019-02-14T03:56:17.868Z,1.08
2019-02-14T03:58:48.162Z,1.10
2019-02-14T04:01:18.823Z,1.03
2019-02-14T04:03:49.142Z,1.04
2019-02-14T04:06:27.286Z,1.01
2019-02-14T04:08:51.970Z,0.99
2019-02-14T04:11:22.290Z,0.94
2019-02-14T04:13:52.876Z,0.88
2019-02-14T04:16:24.541Z,0.88
2019-02-14T04:18:54.826Z,0.88
2019-02-14T04:21:25.161Z,0.99
2019-02-14T04:23:55.472Z,1.08
2019-02-14T04:26:25.757Z,1.12
2019-02-14T04:28:56.347Z,1.20
2019-02-14T04:31:26.831Z,1.19
2019-02-14T04:33:58.722Z,1.10
2019-02-14T04:36:35.823Z,1.00
2019-02-14T04:39:01.902Z,0.94
2019-02-14T04:41:33.225Z,0.92
2019-02-14T04:44:05.295Z,0.98
2019-02-14T04:46:35.680Z,0.94
2019-02-14T04:49:07.089Z,0.91
2019-02-14T04:51:37.758Z,0.81
2019-02-14T04:54:08.382Z,0.72
2019-02-14T04:56:39.122Z,0.68
2019-02-14T04:59:12.374Z,0.63
2019-02-14T05:01:42.646Z,0.60
2019-02-14T05:04:12.940Z,0.68
2019-02-14T05:06:44.479Z,0.75
2019-02-14T05:09:15.211Z,0.86
2019-02-14T05:11:45.543Z,0.90
2019-02-14T05:14:16.165Z,0.87
2019-02-14T05:16:46.799Z,0.89
2019-02-14T05:19:17.089Z,0.83
2019-02-14T05:21:47.689Z,0.83
2019-02-14T05:24:19.063Z,0.78
2019-02-14T05:26:50.104Z,0.70
2019-02-14T05:29:20.382Z,0.58
2019-02-14T05:31:51.279Z,0.61
2019-02-14T05:34:21.622Z,0.58
2019-02-14T05:36:55.230Z,0.58
2019-02-14T05:39:25.303Z,0.56
2019-02-14T05:41:55.921Z,0.56
2019-02-14T05:44:26.201Z,0.54
2019-02-14T05:46:56.769Z,0.55
2019-02-14T05:49:27.195Z,0.50
2019-02-14T05:51:57.503Z,0.51
2019-02-14T05:54:27.805Z,0.44
2019-02-14T05:56:58.147Z,0.46
2019-02-14T05:59:28.708Z,0.27
2019-02-14T06:01:59.040Z,0.27
2019-02-14T06:04:29.322Z,0.34
2019-02-14T06:07:01.291Z,0.42
2019-02-14T06:09:32.077Z,0.52
2019-02-14T06:12:02.380Z,0.52
2019-02-14T06:14:34.403Z,0.45
2019-02-14T06:17:04.682Z,0.41
2019-02-14T06:19:36.946Z,0.43
2019-02-14T06:22:07.305Z,0.55
2019-02-14T06:24:37.876Z,0.60
2019-02-14T06:27:08.231Z,0.52
2019-02-14T06:29:40.935Z,0.57
2019-02-14T06:32:11.308Z,0.57
2019-02-14T06:34:41.595Z,0.49
2019-02-14T06:37:12.228Z,0.42
2019-02-14T06:39:42.609Z,0.34
2019-02-14T06:42:13.128Z,0.35
2019-02-14T06:44:43.510Z,0.35
2019-02-14T06:47:14.101Z,0.40
2019-02-14T06:49:44.568Z,0.40
2019-02-14T06:52:15.017Z,0.28
2019-02-14T06:54:45.609Z,0.25
2019-02-14T06:57:17.520Z,0.26
2019-02-14T06:59:47.945Z,0.26
2019-02-14T07:02:19.587Z,0.39
2019-02-14T07:04:50.184Z,0.50
2019-02-14T07:07:21.343Z,0.54
2019-02-14T07:09:51.609Z,0.53
2019-02-14T07:12:22.320Z,0.58
2019-02-14T07:14:52.676Z,0.62
2019-02-14T07:17:25.420Z,0.67
2019-02-14T07:19:55.853Z,0.72
2019-02-14T07:22:26.351Z,0.75
2019-02-14T07:24:56.748Z,0.80
2019-02-14T07:27:27.055Z,0.87
2019-02-14T07:29:57.673Z,0.90
2019-02-14T07:32:29.076Z,1.02
2019-02-14T07:35:00.016Z,1.11
2019-02-14T07:37:30.382Z,1.21
2019-02-14T07:40:01.444Z,1.33
2019-02-14T07:42:31.815Z,1.37
2019-02-14T07:45:02.445Z,1.47
2019-02-14T07:47:32.983Z,1.50
2019-02-14T07:50:03.315Z,1.55
2019-02-14T07:52:33.611Z,1.65
2019-02-14T07:55:03.949Z,1.69
2019-02-14T07:57:37.256Z,1.75
2019-02-14T08:00:10.601Z,1.86
2019-02-14T08:02:41.492Z,1.92
2019-02-14T08:05:12.233Z,1.98
2019-02-14T08:07:42.601Z,2.01
2019-02-14T08:10:13.840Z,2.04
2019-02-14T08:12:44.387Z,2.07
2019-02-14T08:15:17.016Z,2.15
2019-02-14T08:17:47.566Z,2.27
2019-02-14T08:20:18.879Z,2.35
2019-02-14T08:22:49.198Z,2.43
2019-02-14T08:25:19.829Z,2.51
2019-02-14T08:27:50.248Z,2.61
2019-02-14T08:30:20.655Z,2.84
2019-02-14T08:32:50.928Z,3.01
2019-02-14T08:35:21.219Z,3.20
2019-02-14T08:37:51.545Z,5.03
2019-02-14T08:40:23.938Z,9.73
2019-02-14T08:42:54.521Z,11.57
2019-02-14T08:45:25.119Z,12.61
2019-02-14T08:47:55.469Z,13.05
2019-02-14T08:50:29.738Z,14.53
2019-02-14T08:53:00.218Z,16.34
2019-02-14T08:55:30.529Z,17.36
2019-02-14T08:58:01.187Z,17.96
2019-02-14T09:00:34.146Z,16.79
2019-02-14T09:03:04.756Z,13.29
2019-02-14T09:05:35.325Z,10.87
2019-02-14T09:08:07.880Z,9.29
2019-02-14T09:10:38.778Z,8.48
2019-02-14T09:13:17.025Z,8.03
2019-02-14T09:15:43.847Z,7.98
2019-02-14T09:18:14.289Z,8.51
2019-02-14T09:20:44.671Z,11.48
2019-02-14T09:23:15.025Z,11.65
2019-02-14T09:25:47.742Z,10.49
2019-02-14T09:28:18.082Z,10.07
2019-02-14T09:30:48.387Z,9.98
2019-02-14T09:33:19.085Z,10.36
2019-02-14T09:35:49.451Z,10.76
2019-02-14T09:38:20.039Z,12.51
2019-02-14T09:40:50.345Z,15.30
2019-02-14T09:43:29.403Z,19.19
2019-02-14T09:45:52.714Z,19.19
2019-02-14T09:48:23.367Z,20.61
2019-02-14T09:50:55.704Z,23.19
2019-02-14T09:53:29.024Z,23.87
2019-02-14T09:55:59.907Z,23.87
2019-02-14T09:58:30.528Z,23.15
2019-02-14T10:01:00.843Z,24.09
2019-02-14T10:03:31.384Z,26.81
2019-02-14T10:06:02.048Z,28.95
2019-02-14T10:08:33.006Z,30.19
2019-02-14T10:11:03.359Z,31.06
2019-02-14T10:13:38.315Z,31.38
2019-02-14T10:16:08.596Z,30.89
2019-02-14T10:18:39.301Z,30.93
2019-02-14T10:21:09.805Z,30.97
2019-02-14T10:23:40.142Z,30.43
2019-02-14T10:26:10.742Z,31.23
2019-02-14T10:28:41.033Z,31.23
2019-02-14T10:31:11.848Z,30.98
2019-02-14T10:33:42.162Z,31.67
2019-02-14T10:36:13.049Z,31.53
2019-02-14T10:38:43.578Z,28.81
2019-02-14T10:41:14.250Z,23.82
2019-02-14T10:43:48.898Z,19.63
2019-02-14T10:46:16.721Z,16.52
2019-02-14T10:48:47.397Z,14.67
2019-02-14T10:51:18.919Z,13.37
2019-02-14T10:53:49.526Z,12.61
2019-02-14T10:56:20.203Z,12.15
2019-02-14T10:58:51.693Z,11.84
2019-02-14T11:01:22.290Z,11.67
2019-02-14T11:03:52.851Z,11.53
2019-02-14T11:06:32.146Z,11.44
2019-02-14T11:09:02.683Z,11.36
2019-02-14T11:11:38.262Z,11.29
2019-02-14T11:14:28.940Z,11.15
2019-02-14T11:16:56.566Z,11.03
2019-02-14T11:19:58.162Z,11.02
2019-02-14T11:22:54.075Z,11.02
2019-02-14T11:25:59.593Z,11.12
2019-02-14T11:28:59.778Z,11.09
2019-02-14T11:32:02.697Z,11.07
2019-02-14T11:38:43.418Z,11.04
2019-02-14T11:41:36.499Z,11.03
2019-02-14T11:44:54.363Z,11.15
2019-02-14T11:47:40.414Z,11.22
2019-02-14T11:50:28.841Z,11.29
2019-02-14T11:53:14.897Z,11.40
2019-02-14T11:55:40.786Z,11.46
2019-02-14T11:58:19.740Z,11.60
2019-02-14T12:01:00.598Z,11.80
2019-02-14T12:03:46.647Z,11.97
2019-02-14T12:06:28.025Z,12.05
2019-02-14T12:09:15.038Z,12.13
2019-02-14T12:11:54.908Z,12.20
2019-02-14T12:14:32.564Z,12.08
2019-02-14T12:17:00.160Z,11.99
2019-02-14T12:19:34.076Z,11.91
2019-02-14T12:22:12.792Z,11.82
2019-02-14T12:24:48.109Z,11.70
2019-02-14T12:27:18.462Z,11.63
2019-02-14T12:29:48.904Z,11.52
2019-02-14T12:32:19.590Z,11.42
2019-02-14T12:34:50.089Z,11.41
2019-02-14T12:37:20.385Z,11.45
2019-02-14T12:39:52.181Z,11.47
2019-02-14T12:42:22.858Z,11.43
2019-02-14T12:44:54.655Z,11.44
2019-02-14T12:47:27.454Z,11.57
2019-02-14T12:50:14.473Z,11.63
2019-02-14T12:52:45.187Z,11.76
2019-02-14T12:55:30.134Z,11.95
2019-02-14T12:58:16.441Z,12.02
2019-02-14T13:00:46.802Z,12.02
2019-02-14T13:03:17.393Z,12.12
2019-02-14T13:05:49.225Z,12.12
2019-02-14T13:08:22.509Z,12.16
2019-02-14T13:10:52.787Z,12.14
2019-02-14T13:13:25.146Z,12.17
2019-02-14T13:15:55.496Z,12.26
2019-02-14T13:18:52.186Z,12.32
2019-02-14T13:21:13.213Z,12.34
2019-02-14T13:23:43.530Z,12.36
2019-02-14T13:26:14.901Z,12.36
2019-02-14T13:29:03.090Z,12.36
2019-02-14T13:31:40.271Z,12.35
2019-02-14T13:34:10.827Z,12.38
2019-02-14T13:36:41.191Z,12.44
2019-02-14T13:39:11.796Z,12.51
2019-02-14T13:41:42.537Z,12.58
2019-02-14T13:44:12.862Z,12.66
2019-02-14T13:46:43.487Z,12.72
2019-02-14T13:49:13.794Z,12.72
2019-02-14T13:51:45.416Z,12.71
2019-02-14T13:54:15.817Z,12.74
2019-02-14T13:56:53.904Z,12.83
2019-02-14T13:59:18.520Z,12.99
2019-02-14T14:01:49.617Z,13.12
2019-02-14T14:04:20.349Z,13.20
2019-02-14T14:06:51.953Z,13.24
2019-02-14T14:09:22.300Z,13.24
2019-02-14T14:11:54.548Z,13.25
2019-02-14T14:14:26.164Z,13.31
2019-02-14T14:16:58.266Z,13.37
2019-02-14T14:19:30.543Z,13.36
2019-02-14T14:22:00.940Z,13.30
2019-02-14T14:24:31.590Z,13.27
2019-02-14T14:27:02.257Z,13.25
2019-02-14T14:29:34.387Z,13.25
2019-02-14T14:32:04.881Z,13.23
2019-02-14T14:34:36.296Z,13.27
2019-02-14T14:37:07.982Z,13.28
2019-02-14T14:39:47.565Z,13.27
2019-02-14T14:42:32.628Z,13.23
2019-02-14T14:45:05.536Z,13.24
2019-02-14T14:47:35.866Z,13.28
2019-02-14T14:50:06.456Z,13.31
2019-02-14T14:52:37.066Z,13.31
2019-02-14T14:55:08.146Z,13.28
2019-02-14T14:57:40.614Z,13.25
2019-02-14T15:00:14.191Z,13.28
2019-02-14T15:02:44.542Z,13.29
2019-02-14T15:05:15.175Z,13.28
2019-02-14T15:07:46.800Z,13.25
2019-02-14T15:10:19.764Z,13.20
2019-02-14T15:12:58.439Z,13.15
2019-02-14T15:15:32.806Z,13.09
2019-02-14T15:18:03.209Z,13.00
2019-02-14T15:20:33.889Z,12.91
2019-02-14T15:23:04.259Z,12.89
2019-02-14T15:25:34.590Z,12.87
2019-02-14T15:28:04.989Z,12.76
2019-02-14T15:30:38.832Z,12.63
2019-02-14T15:33:09.417Z,12.43
2019-02-14T15:35:39.940Z,12.43
2019-02-14T15:38:12.014Z,12.34
2019-02-14T15:40:50.273Z,12.23
2019-02-14T15:43:22.588Z,12.20
2019-02-14T15:45:54.675Z,12.14
2019-02-14T15:48:26.622Z,11.89
2019-02-14T15:51:01.123Z,11.89
2019-02-14T15:53:38.331Z,11.78
2019-02-14T15:56:13.899Z,11.72
2019-02-14T15:58:44.927Z,11.66
2019-02-14T16:01:19.025Z,11.65
2019-02-14T16:03:50.639Z,11.50
2019-02-14T16:06:21.848Z,11.50
2019-02-14T16:08:54.167Z,11.46
2019-02-14T16:11:24.556Z,11.34
2019-02-14T16:13:57.183Z,11.21
2019-02-14T16:16:27.616Z,11.22
2019-02-14T16:18:58.321Z,11.30
2019-02-14T16:21:29.947Z,11.16
2019-02-14T16:24:01.426Z,11.01
2019-02-14T16:26:32.245Z,10.90
2019-02-14T16:29:03.739Z,10.80
2019-02-14T16:31:34.383Z,10.72
2019-02-14T16:34:04.902Z,10.71
2019-02-14T16:36:36.381Z,10.90
2019-02-14T16:39:07.774Z,10.89
2019-02-14T16:41:38.164Z,10.88
2019-02-14T16:44:08.570Z,10.72
2019-02-14T16:46:38.890Z,10.51
2019-02-14T16:49:09.223Z,10.27
2019-02-14T16:51:39.520Z,10.02
2019-02-14T16:56:46.780Z,9.58
2019-02-14T16:59:17.147Z,9.42
2019-02-14T17:01:51.812Z,9.28
2019-02-14T17:04:26.033Z,9.14
2019-02-14T17:06:57.214Z,9.01
2019-02-14T17:09:30.633Z,8.93
2019-02-14T17:12:03.708Z,8.83
2019-02-14T17:14:34.227Z,8.73
2019-02-14T17:17:04.740Z,8.50
2019-02-14T17:19:39.846Z,8.50
2019-02-14T17:22:10.580Z,8.45
2019-02-14T17:24:41.301Z,8.36
2019-02-14T17:27:12.000Z,8.28
2019-02-14T17:29:42.420Z,8.22
2019-02-14T17:32:12.851Z,8.17
2019-02-14T17:34:44.678Z,8.16
2019-02-14T17:37:14.992Z,8.13
2019-02-14T17:39:45.417Z,8.06
2019-02-14T17:42:22.724Z,8.00
2019-02-14T17:44:54.545Z,7.96
2019-02-14T17:47:25.189Z,7.90
2019-02-14T17:49:56.890Z,7.86
2019-02-14T17:52:30.027Z,7.77
2019-02-14T17:55:13.218Z,7.73
2019-02-14T17:57:37.258Z,7.70
2019-02-14T18:00:10.218Z,7.52
2019-02-14T18:02:42.030Z,7.39
2019-02-14T18:07:49.647Z,7.18
2019-02-14T18:10:24.452Z,7.03
2019-02-14T18:12:56.464Z,6.98
2019-02-14T18:15:34.303Z,6.91
2019-02-14T18:18:05.274Z,6.90
2019-02-14T18:20:40.220Z,6.81
2019-02-14T18:23:10.894Z,6.74
2019-02-14T18:25:43.768Z,6.67
2019-02-14T18:28:14.492Z,6.59
2019-02-14T18:30:45.151Z,6.44
2019-02-14T18:33:15.728Z,6.42
2019-02-14T18:35:51.197Z,6.34
2019-02-14T18:38:21.714Z,6.24
2019-02-14T18:41:03.841Z,6.12
2019-02-14T18:43:29.383Z,6.05
2019-02-14T18:46:00.161Z,5.95
2019-02-14T18:48:33.054Z,5.86
2019-02-14T18:51:06.169Z,5.86
2019-02-14T18:53:36.723Z,5.90
2019-02-14T18:56:07.284Z,6.06
2019-02-14T18:58:37.659Z,6.01
2019-02-14T19:01:09.260Z,5.96
2019-02-14T19:03:41.013Z,5.90
2019-02-14T19:06:15.665Z,5.80
2019-02-14T19:08:46.112Z,5.72
2019-02-14T19:11:16.756Z,5.68
2019-02-14T19:13:47.394Z,5.58
2019-02-14T19:16:17.703Z,5.50
2019-02-14T19:18:48.536Z,5.50
2019-02-14T19:21:22.485Z,5.52
2019-02-14T19:23:54.849Z,5.56
2019-02-14T19:26:25.298Z,5.68
2019-02-14T19:28:55.739Z,5.79
2019-02-14T19:31:26.234Z,5.82
2019-02-14T19:33:59.266Z,5.89
2019-02-14T19:36:31.488Z,5.94
2019-02-14T19:39:02.070Z,5.87
2019-02-14T19:41:37.693Z,5.86
2019-02-14T19:44:08.398Z,6.03
2019-02-14T19:46:43.435Z,5.98
2019-02-14T19:49:14.259Z,5.87
2019-02-14T19:51:44.701Z,5.93
2019-02-14T19:54:17.913Z,5.99
2019-02-14T19:57:01.067Z,5.95
2019-02-14T19:59:35.272Z,5.90
2019-02-14T20:02:08.329Z,5.86
2019-02-14T20:04:38.659Z,5.62
2019-02-14T20:07:10.221Z,5.40
2019-02-14T20:09:43.601Z,5.26
2019-02-14T20:12:15.642Z,4.83
2019-02-14T20:14:46.270Z,4.83
2019-02-14T20:17:16.846Z,4.71
2019-02-14T20:19:53.692Z,4.56
2019-02-14T20:22:24.410Z,4.47
2019-02-14T20:24:55.250Z,4.47
2019-02-14T20:27:25.664Z,4.49
2019-02-14T20:29:59.392Z,4.59
2019-02-14T20:32:30.050Z,4.69
2019-02-14T20:35:01.795Z,4.75
2019-02-14T20:37:34.578Z,4.77
2019-02-14T20:40:06.938Z,5.16
2019-02-14T20:42:42.293Z,5.23
2019-02-14T20:45:14.904Z,5.19
2019-02-14T20:47:47.147Z,5.13
2019-02-14T20:50:17.945Z,5.09
2019-02-14T20:52:48.953Z,5.04
2019-02-14T20:55:25.051Z,5.11
2019-02-14T20:57:52.901Z,5.37
2019-02-14T21:00:34.157Z,5.89
2019-02-14T21:03:05.234Z,5.79
2019-02-14T21:05:35.644Z,5.65
2019-02-14T21:08:09.495Z,5.43
2019-02-14T21:10:42.614Z,5.48
2019-02-14T21:13:13.388Z,5.55
2019-02-14T21:15:45.613Z,5.52
2019-02-14T21:18:18.618Z,5.37
2019-02-14T21:20:49.302Z,5.27
2019-02-14T21:23:22.923Z,5.21
2019-02-14T21:25:53.505Z,5.11
2019-02-14T21:28:24.309Z,5.09
2019-02-14T21:30:54.783Z,5.12
2019-02-14T21:33:28.938Z,5.12
2019-02-14T21:35:59.308Z,5.05
2019-02-14T21:38:32.024Z,5.09
2019-02-14T21:41:05.801Z,5.00
2019-02-14T21:43:39.784Z,4.97
2019-02-14T21:46:10.642Z,4.91
2019-02-14T21:48:42.719Z,4.88
2019-02-14T21:51:13.386Z,4.87
2019-02-14T21:53:46.003Z,4.93
2019-02-14T21:56:16.378Z,4.94
2019-02-14T21:58:59.187Z,4.99
2019-02-14T22:01:54.784Z,5.00
2019-02-14T22:04:45.111Z,4.90
2019-02-14T22:07:35.750Z,4.82
2019-02-14T22:10:07.052Z,4.78
2019-02-14T22:12:41.382Z,4.69
2019-02-14T22:17:48.374Z,4.66
2019-02-14T22:20:18.733Z,4.67
2019-02-14T22:22:49.099Z,4.63
2019-02-14T22:25:19.591Z,4.59
2019-02-14T22:27:51.401Z,4.60
2019-02-14T22:30:21.739Z,4.52
2019-02-14T22:32:52.117Z,4.42
2019-02-14T22:35:22.689Z,4.47
2019-02-14T22:37:54.537Z,4.43
2019-02-14T22:40:26.429Z,4.45
2019-02-14T22:42:56.915Z,4.48
2019-02-14T22:45:27.255Z,4.55
2019-02-14T22:47:59.166Z,4.51
2019-02-14T22:50:29.849Z,4.59
2019-02-14T22:53:05.906Z,4.55
2019-02-14T22:55:39.693Z,4.73
2019-02-14T22:58:10.179Z,4.76
2019-02-14T23:00:55.316Z,4.68
2019-02-14T23:03:26.291Z,4.56
2019-02-14T23:05:57.871Z,4.50
2019-02-14T23:08:29.184Z,4.48
2019-02-14T23:10:59.483Z,4.51
2019-02-14T23:13:29.863Z,4.45
2019-02-14T23:16:05.824Z,4.47
2019-02-14T23:18:36.908Z,4.40
2019-02-14T23:21:07.235Z,4.40
2019-02-14T23:23:37.720Z,4.34
2019-02-14T23:26:09.854Z,4.30
2019-02-14T23:29:29.333Z,4.25
2019-02-14T23:31:14.066Z,4.25
2019-02-14T23:33:44.397Z,4.16
2019-02-14T23:36:14.994Z,4.12
2019-02-14T23:38:46.401Z,4.12
2019-02-14T23:41:16.648Z,4.26
2019-02-14T23:43:47.027Z,4.22
2019-02-14T23:46:17.759Z,4.16
2019-02-14T23:48:49.129Z,4.16
2019-02-14T23:51:20.689Z,4.23
2019-02-14T23:53:51.295Z,4.20
2019-02-14T23:56:23.210Z,4.20
2019-02-14T23:58:53.509Z,4.19
